Troye d'Ariège ULM

FR-0355 · Occitanie, 法国

此METAR来自2022年8月16日 10:00. 最近的
罗盘
风向 的 风向 070° Troye d'Ariège ULM 11/29
风: 13 kt, 4 beaufort

10 kt

8 kt
改变
0 1.000 2.000 3.000 4.000 5.000
CAVOK
METAR LFMK 160800Z AUTO 07013KT CAVOK 26/14 Q1007 TEMPO 10015G25KT

METAR Troye d'Ariège ULM - FR-0355

Troye d'Ariège ULM是Troye d'Ariège,法国中的小机场。 该机场有一条跑道: 11/29. 该领域的国际民航组织标志是FR-0355.

这份报告是针对2022年8月16日 10:00, 当地时间在Carcassonne Airport进行的。

机场观察

风向为070°,速度为13 kt。

天气为CAVOK。这意味着在5.000 ft或MSA(最低安全高度)以下(以较高者为准)以下没有云。这也意味着没有观测到积雨云或高耸的积云,可见度为10 km 或者更多或更高。此外,不会有雾,降雨或其他重要天气。

温度和风寒是26 °C。 露点为14 °C,相对湿度为48%。 海平面上的气压为1007 hPa (QNH)。

发展趋势

  • 暂时的

    风来自100°方向,速度为15 kt。 预计25 kt阵风。

白天

今天,太阳从07:50升起,在19:32降落。 这适用于Troye d'Ariège ULM,世界夏令时可能有所不同。 当地时间与世界标准时间之间的时差为+2 小时。 夏令时目前正在进行中。

公司介绍

我们没有关于这个机场的公司信息。

体会

到Vliegles.nl去找飞行课程,跳伞和其他飞行体验。 浏览页面,了解Troye d'Ariège ULM附近所有可用的活动。 你也可以使用搜索功能来寻找你所在地附近的特定飞行课程、跳伞或其他飞行体验。

跑道

Id 标题 侧风 逆风 侧风 %
11/29 110°-290° 8 kt 10 kt 64 %

逆风成分最大的方向会被突出显示,并用于横风计算。 这并不一定意味着这个方向在使用。

温度 & 天气

温度 26 °C
露点 14 °C
相对湿度 48%
Kp-index 4 (0-9)

白天

日出
06:57
中午
13:55
日落
20:52

小工具

你想在你的网站上有一个关于Troye d'Ariège ULM的当前航空天气(METAR)的小部件吗?

</> 显示HTML代码

我们和第三方通过cookies跟踪您在我们网站上的上网行为。如果您继续,我们认为您同意我们的cookie政策。 了解更多